sensor_id;sensor_type;location;lat;lon;timestamp;temperature;humidity
15296;DHT22;7749;49.964;7.890;2023-07-22T00:00:00;17.30;1.00
15296;DHT22;7749;49.964;7.890;2023-07-22T00:02:28;17.20;29.10
15296;DHT22;7749;49.964;7.890;2023-07-22T00:04:57;17.30;1.00
15296;DHT22;7749;49.964;7.890;2023-07-22T00:07:24;17.20;99.90
15296;DHT22;7749;49.964;7.890;2023-07-22T00:09:52;17.20;99.90
15296;DHT22;7749;49.964;7.890;2023-07-22T00:12:19;17.30;99.90
15296;DHT22;7749;49.964;7.890;2023-07-22T00:14:47;17.40;99.90
15296;DHT22;7749;49.964;7.890;2023-07-22T00:17:14;17.30;99.90
15296;DHT22;7749;49.964;7.890;2023-07-22T00:19:42;17.30;99.90
15296;DHT22;7749;49.964;7.890;2023-07-22T00:22:09;17.10;1.00
15296;DHT22;7749;49.964;7.890;2023-07-22T00:24:37;17.10;1.00
15296;DHT22;7749;49.964;7.890;2023-07-22T00:27:05;17.00;1.00
15296;DHT22;7749;49.964;7.890;2023-07-22T00:29:35;17.00;1.00
15296;DHT22;7749;49.964;7.890;2023-07-22T00:32:04;17.00;1.00
15296;DHT22;7749;49.964;7.890;2023-07-22T00:34:35;16.90;1.00
15296;DHT22;7749;49.964;7.890;2023-07-22T00:37:02;16.90;1.00
15296;DHT22;7749;49.964;7.890;2023-07-22T00:39:30;16.90;1.00
15296;DHT22;7749;49.964;7.890;2023-07-22T00:41:57;16.90;1.00
15296;DHT22;7749;49.964;7.890;2023-07-22T00:44:25;16.90;1.00
15296;DHT22;7749;49.964;7.890;2023-07-22T00:46:56;16.90;1.00
15296;DHT22;7749;49.964;7.890;2023-07-22T00:49:26;16.90;1.00
15296;DHT22;7749;49.964;7.890;2023-07-22T00:51:53;16.80;1.00
15296;DHT22;7749;49.964;7.890;2023-07-22T00:54:21;16.60;1.00
15296;DHT22;7749;49.964;7.890;2023-07-22T00:56:48;16.50;1.00
15296;DHT22;7749;49.964;7.890;2023-07-22T00:59:16;16.40;1.00
15296;DHT22;7749;49.964;7.890;2023-07-22T01:01:43;16.30;1.00
15296;DHT22;7749;49.964;7.890;2023-07-22T01:04:13;16.20;1.00
15296;DHT22;7749;49.964;7.890;2023-07-22T01:06:43;16.10;6.10
15296;DHT22;7749;49.964;7.890;2023-07-22T01:09:11;16.10;11.60
15296;DHT22;7749;49.964;7.890;2023-07-22T01:11:39;16.10;32.60
15296;DHT22;7749;49.964;7.890;2023-07-22T01:14:06;16.00;43.10
15296;DHT22;7749;49.964;7.890;2023-07-22T01:16:35;16.00;31.70
15296;DHT22;7749;49.964;7.890;2023-07-22T01:19:03;16.10;32.50
15296;DHT22;7749;49.964;7.890;2023-07-22T01:21:32;16.10;30.00
15296;DHT22;7749;49.964;7.890;2023-07-22T01:24:00;16.00;30.60
15296;DHT22;7749;49.964;7.890;2023-07-22T01:26:28;16.00;14.40
15296;DHT22;7749;49.964;7.890;2023-07-22T01:29:05;15.90;30.40
15296;DHT22;7749;49.964;7.890;2023-07-22T01:31:38;15.90;1.00
15296;DHT22;7749;49.964;7.890;2023-07-22T01:34:05;15.80;16.80
15296;DHT22;7749;49.964;7.890;2023-07-22T01:36:33;15.80;1.00
15296;DHT22;7749;49.964;7.890;2023-07-22T01:39:00;15.80;1.00
15296;DHT22;7749;49.964;7.890;2023-07-22T01:41:28;15.80;1.00
15296;DHT22;7749;49.964;7.890;2023-07-22T01:43:55;15.80;1.00
15296;DHT22;7749;49.964;7.890;2023-07-22T01:46:23;15.70;1.00
15296;DHT22;7749;49.964;7.890;2023-07-22T01:48:50;15.60;1.00
15296;DHT22;7749;49.964;7.890;2023-07-22T01:51:18;15.50;3.80
15296;DHT22;7749;49.964;7.890;2023-07-22T01:53:45;15.50;24.10
15296;DHT22;7749;49.964;7.890;2023-07-22T01:56:12;15.40;39.10
15296;DHT22;7749;49.964;7.890;2023-07-22T01:58:40;15.30;61.10
15296;DHT22;7749;49.964;7.890;2023-07-22T02:01:08;15.20;90.60
15296;DHT22;7749;49.964;7.890;2023-07-22T02:03:35;15.10;90.30
15296;DHT22;7749;49.964;7.890;2023-07-22T02:06:04;15.00;96.20
15296;DHT22;7749;49.964;7.890;2023-07-22T02:08:31;15.00;96.60
15296;DHT22;7749;49.964;7.890;2023-07-22T02:11:03;14.90;96.00
15296;DHT22;7749;49.964;7.890;2023-07-22T02:13:34;15.10;66.10
15296;DHT22;7749;49.964;7.890;2023-07-22T02:16:03;15.10;43.00
15296;DHT22;7749;49.964;7.890;2023-07-22T02:18:30;15.10;10.90
15296;DHT22;7749;49.964;7.890;2023-07-22T02:20:58;15.10;1.00
15296;DHT22;7749;49.964;7.890;2023-07-22T02:23:25;15.10;10.20
15296;DHT22;7749;49.964;7.890;2023-07-22T02:25:54;15.20;11.30
15296;DHT22;7749;49.964;7.890;2023-07-22T02:28:22;15.10;1.00
15296;DHT22;7749;49.964;7.890;2023-07-22T02:30:52;15.00;1.00
15296;DHT22;7749;49.964;7.890;2023-07-22T02:33:20;15.10;1.00
15296;DHT22;7749;49.964;7.890;2023-07-22T02:35:51;15.00;17.60
15296;DHT22;7749;49.964;7.890;2023-07-22T02:38:19;15.10;26.90
15296;DHT22;7749;49.964;7.890;2023-07-22T02:40:46;15.10;23.00
15296;DHT22;7749;49.964;7.890;2023-07-22T02:43:14;15.10;24.00
15296;DHT22;7749;49.964;7.890;2023-07-22T02:45:42;15.10;9.80
15296;DHT22;7749;49.964;7.890;2023-07-22T02:48:10;15.10;3.10
15296;DHT22;7749;49.964;7.890;2023-07-22T02:50:37;15.10;12.40
15296;DHT22;7749;49.964;7.890;2023-07-22T02:53:05;15.10;1.00
15296;DHT22;7749;49.964;7.890;2023-07-22T02:55:33;15.00;1.00
15296;DHT22;7749;49.964;7.890;2023-07-22T02:58:00;15.00;1.00
15296;DHT22;7749;49.964;7.890;2023-07-22T03:00:28;15.00;13.70
15296;DHT22;7749;49.964;7.890;2023-07-22T03:02:56;15.00;25.00
15296;DHT22;7749;49.964;7.890;2023-07-22T03:05:30;15.10;30.90
15296;DHT22;7749;49.964;7.890;2023-07-22T03:07:58;14.90;72.90
15296;DHT22;7749;49.964;7.890;2023-07-22T03:10:26;14.90;56.50
15296;DHT22;7749;49.964;7.890;2023-07-22T03:12:55;14.80;59.70
15296;DHT22;7749;49.964;7.890;2023-07-22T03:15:23;14.70;90.60
15296;DHT22;7749;49.964;7.890;2023-07-22T03:17:54;14.60;99.90
15296;DHT22;7749;49.964;7.890;2023-07-22T03:20:23;14.40;99.90
15296;DHT22;7749;49.964;7.890;2023-07-22T03:22:52;14.30;99.90
15296;DHT22;7749;49.964;7.890;2023-07-22T03:25:19;14.30;99.90
15296;DHT22;7749;49.964;7.890;2023-07-22T03:27:47;14.20;99.90
15296;DHT22;7749;49.964;7.890;2023-07-22T03:30:17;14.40;99.90
15296;DHT22;7749;49.964;7.890;2023-07-22T03:32:46;14.40;99.90
15296;DHT22;7749;49.964;7.890;2023-07-22T03:35:20;14.50;99.90
15296;DHT22;7749;49.964;7.890;2023-07-22T03:37:47;14.50;87.80
15296;DHT22;7749;49.964;7.890;2023-07-22T03:40:15;14.50;73.20
15296;DHT22;7749;49.964;7.890;2023-07-22T03:43:02;14.50;48.40
15296;DHT22;7749;49.964;7.890;2023-07-22T03:45:30;14.50;42.20
15296;DHT22;7749;49.964;7.890;2023-07-22T03:47:59;14.40;54.50
15296;DHT22;7749;49.964;7.890;2023-07-22T03:50:28;14.40;91.80
15296;DHT22;7749;49.964;7.890;2023-07-22T03:52:55;14.30;99.20
15296;DHT22;7749;49.964;7.890;2023-07-22T03:55:23;14.30;73.00
15296;DHT22;7749;49.964;7.890;2023-07-22T03:57:51;14.20;99.80
15296;DHT22;7749;49.964;7.890;2023-07-22T04:00:19;14.30;92.70
15296;DHT22;7749;49.964;7.890;2023-07-22T04:02:47;14.30;93.00
15296;DHT22;7749;49.964;7.890;2023-07-22T04:05:14;14.30;99.40
15296;DHT22;7749;49.964;7.890;2023-07-22T04:07:42;14.20;99.70
15296;DHT22;7749;49.964;7.890;2023-07-22T04:10:12;14.30;55.10
15296;DHT22;7749;49.964;7.890;2023-07-22T04:12:39;14.30;37.20
15296;DHT22;7749;49.964;7.890;2023-07-22T04:15:09;14.40;27.30
15296;DHT22;7749;49.964;7.890;2023-07-22T04:17:37;14.40;2.50
15296;DHT22;7749;49.964;7.890;2023-07-22T04:20:05;14.50;1.00
15296;DHT22;7749;49.964;7.890;2023-07-22T04:22:34;14.60;1.00
15296;DHT22;7749;49.964;7.890;2023-07-22T04:25:02;14.60;1.00
15296;DHT22;7749;49.964;7.890;2023-07-22T04:27:30;14.60;1.00
15296;DHT22;7749;49.964;7.890;2023-07-22T04:29:57;14.60;1.00
15296;DHT22;7749;49.964;7.890;2023-07-22T04:32:24;14.80;1.00
15296;DHT22;7749;49.964;7.890;2023-07-22T04:34:52;14.80;1.00
15296;DHT22;7749;49.964;7.890;2023-07-22T04:37:20;14.90;1.00
15296;DHT22;7749;49.964;7.890;2023-07-22T04:39:49;14.90;1.00
15296;DHT22;7749;49.964;7.890;2023-07-22T04:42:17;15.00;1.00
15296;DHT22;7749;49.964;7.890;2023-07-22T04:44:44;15.00;16.60
15296;DHT22;7749;49.964;7.890;2023-07-22T04:47:12;15.00;33.70
15296;DHT22;7749;49.964;7.890;2023-07-22T04:49:39;14.80;61.90
15296;DHT22;7749;49.964;7.890;2023-07-22T04:52:07;14.80;90.50
15296;DHT22;7749;49.964;7.890;2023-07-22T04:54:35;14.90;91.10
15296;DHT22;7749;49.964;7.890;2023-07-22T04:57:02;15.00;43.60
15296;DHT22;7749;49.964;7.890;2023-07-22T04:59:30;15.20;33.40
15296;DHT22;7749;49.964;7.890;2023-07-22T05:01:58;15.30;37.50
15296;DHT22;7749;49.964;7.890;2023-07-22T05:04:25;15.20;58.80
15296;DHT22;7749;49.964;7.890;2023-07-22T05:06:53;15.30;42.90
15296;DHT22;7749;49.964;7.890;2023-07-22T05:09:20;15.30;21.80
15296;DHT22;7749;49.964;7.890;2023-07-22T05:11:48;15.30;34.00
15296;DHT22;7749;49.964;7.890;2023-07-22T05:14:15;15.50;31.00
15296;DHT22;7749;49.964;7.890;2023-07-22T05:16:43;15.60;1.00
15296;DHT22;7749;49.964;7.890;2023-07-22T05:19:10;15.70;1.00
15296;DHT22;7749;49.964;7.890;2023-07-22T05:21:38;15.80;1.00
15296;DHT22;7749;49.964;7.890;2023-07-22T05:24:05;15.90;1.00
15296;DHT22;7749;49.964;7.890;2023-07-22T05:26:33;15.90;1.00
15296;DHT22;7749;49.964;7.890;2023-07-22T05:29:00;15.90;1.00
15296;DHT22;7749;49.964;7.890;2023-07-22T05:31:28;16.00;1.00
15296;DHT22;7749;49.964;7.890;2023-07-22T05:33:55;16.20;1.00
15296;DHT22;7749;49.964;7.890;2023-07-22T05:36:23;16.30;1.00
15296;DHT22;7749;49.964;7.890;2023-07-22T05:38:50;16.30;1.00
15296;DHT22;7749;49.964;7.890;2023-07-22T05:41:18;16.40;1.00
15296;DHT22;7749;49.964;7.890;2023-07-22T05:43:45;16.50;1.00
15296;DHT22;7749;49.964;7.890;2023-07-22T05:46:13;16.50;1.00
15296;DHT22;7749;49.964;7.890;2023-07-22T05:48:41;16.50;1.00
15296;DHT22;7749;49.964;7.890;2023-07-22T05:51:09;16.50;1.00
15296;DHT22;7749;49.964;7.890;2023-07-22T05:53:37;16.70;1.00
15296;DHT22;7749;49.964;7.890;2023-07-22T05:56:04;16.90;1.00
15296;DHT22;7749;49.964;7.890;2023-07-22T05:58:32;17.10;1.00
15296;DHT22;7749;49.964;7.890;2023-07-22T06:00:59;17.30;1.00
15296;DHT22;7749;49.964;7.890;2023-07-22T06:03:27;17.40;1.00
15296;DHT22;7749;49.964;7.890;2023-07-22T06:05:56;17.50;1.00
15296;DHT22;7749;49.964;7.890;2023-07-22T06:08:24;17.40;1.00
15296;DHT22;7749;49.964;7.890;2023-07-22T06:10:53;17.40;1.00
15296;DHT22;7749;49.964;7.890;2023-07-22T06:13:20;17.30;1.00
15296;DHT22;7749;49.964;7.890;2023-07-22T06:15:48;17.10;1.00
15296;DHT22;7749;49.964;7.890;2023-07-22T06:18:15;17.00;1.00
15296;DHT22;7749;49.964;7.890;2023-07-22T06:20:43;16.90;1.00
15296;DHT22;7749;49.964;7.890;2023-07-22T06:23:11;16.90;1.00
15296;DHT22;7749;49.964;7.890;2023-07-22T06:25:38;17.10;1.00
15296;DHT22;7749;49.964;7.890;2023-07-22T06:28:06;17.20;1.00
15296;DHT22;7749;49.964;7.890;2023-07-22T06:30:34;17.40;1.00
15296;DHT22;7749;49.964;7.890;2023-07-22T06:33:01;17.70;1.00
15296;DHT22;7749;49.964;7.890;2023-07-22T06:35:29;17.70;1.00
15296;DHT22;7749;49.964;7.890;2023-07-22T06:37:56;17.90;1.00
15296;DHT22;7749;49.964;7.890;2023-07-22T06:40:24;17.90;99.90
15296;DHT22;7749;49.964;7.890;2023-07-22T06:42:52;17.90;99.90
15296;DHT22;7749;49.964;7.890;2023-07-22T06:45:19;17.90;99.90
15296;DHT22;7749;49.964;7.890;2023-07-22T06:47:47;17.80;99.90
15296;DHT22;7749;49.964;7.890;2023-07-22T06:50:15;17.70;99.90
15296;DHT22;7749;49.964;7.890;2023-07-22T06:52:42;17.70;1.00
15296;DHT22;7749;49.964;7.890;2023-07-22T06:55:10;17.90;99.90
15296;DHT22;7749;49.964;7.890;2023-07-22T06:57:38;18.00;99.90
15296;DHT22;7749;49.964;7.890;2023-07-22T07:00:06;18.20;98.30
15296;DHT22;7749;49.964;7.890;2023-07-22T07:02:34;18.40;1.00
15296;DHT22;7749;49.964;7.890;2023-07-22T07:05:01;18.60;1.00
15296;DHT22;7749;49.964;7.890;2023-07-22T07:07:29;18.80;1.00
15296;DHT22;7749;49.964;7.890;2023-07-22T07:09:56;18.90;99.90
15296;DHT22;7749;49.964;7.890;2023-07-22T07:12:24;19.20;1.00
15296;DHT22;7749;49.964;7.890;2023-07-22T07:14:52;19.50;1.00
15296;DHT22;7749;49.964;7.890;2023-07-22T07:17:20;19.70;1.00
15296;DHT22;7749;49.964;7.890;2023-07-22T07:19:48;19.90;1.00
15296;DHT22;7749;49.964;7.890;2023-07-22T07:22:15;20.00;1.00
15296;DHT22;7749;49.964;7.890;2023-07-22T07:24:43;20.10;99.90
15296;DHT22;7749;49.964;7.890;2023-07-22T07:27:11;20.20;1.00
15296;DHT22;7749;49.964;7.890;2023-07-22T07:29:38;20.40;1.00
15296;DHT22;7749;49.964;7.890;2023-07-22T07:32:20;20.60;99.90
15296;DHT22;7749;49.964;7.890;2023-07-22T07:34:48;20.70;1.00
15296;DHT22;7749;49.964;7.890;2023-07-22T07:37:16;20.90;99.90
15296;DHT22;7749;49.964;7.890;2023-07-22T07:39:43;21.00;99.90
15296;DHT22;7749;49.964;7.890;2023-07-22T07:42:11;21.20;1.00
15296;DHT22;7749;49.964;7.890;2023-07-22T07:44:38;21.30;1.00
15296;DHT22;7749;49.964;7.890;2023-07-22T07:47:06;21.30;99.90
15296;DHT22;7749;49.964;7.890;2023-07-22T07:49:33;21.30;99.90
15296;DHT22;7749;49.964;7.890;2023-07-22T07:52:01;21.50;1.00
15296;DHT22;7749;49.964;7.890;2023-07-22T07:54:29;21.60;1.00
15296;DHT22;7749;49.964;7.890;2023-07-22T07:57:06;21.70;1.00
15296;DHT22;7749;49.964;7.890;2023-07-22T07:59:34;21.80;1.00
15296;DHT22;7749;49.964;7.890;2023-07-22T08:02:06;21.90;1.00
15296;DHT22;7749;49.964;7.890;2023-07-22T08:04:36;21.90;1.00
15296;DHT22;7749;49.964;7.890;2023-07-22T08:07:06;22.00;1.00
15296;DHT22;7749;49.964;7.890;2023-07-22T08:09:33;22.10;1.00
15296;DHT22;7749;49.964;7.890;2023-07-22T08:12:01;22.20;1.00
15296;DHT22;7749;49.964;7.890;2023-07-22T08:14:30;22.40;99.90
15296;DHT22;7749;49.964;7.890;2023-07-22T08:16:58;22.50;99.90
15296;DHT22;7749;49.964;7.890;2023-07-22T08:19:25;22.60;99.90
15296;DHT22;7749;49.964;7.890;2023-07-22T08:21:55;22.60;99.90
15296;DHT22;7749;49.964;7.890;2023-07-22T08:24:22;22.70;99.90
15296;DHT22;7749;49.964;7.890;2023-07-22T08:26:50;22.40;99.90
15296;DHT22;7749;49.964;7.890;2023-07-22T08:29:17;22.40;99.90
15296;DHT22;7749;49.964;7.890;2023-07-22T08:31:45;22.20;99.90
15296;DHT22;7749;49.964;7.890;2023-07-22T08:34:12;22.10;99.90
15296;DHT22;7749;49.964;7.890;2023-07-22T08:36:40;22.00;99.90
15296;DHT22;7749;49.964;7.890;2023-07-22T08:39:08;22.00;1.00
15296;DHT22;7749;49.964;7.890;2023-07-22T08:41:36;22.10;1.00
15296;DHT22;7749;49.964;7.890;2023-07-22T08:44:04;22.20;1.00
15296;DHT22;7749;49.964;7.890;2023-07-22T08:46:36;22.00;99.90
15296;DHT22;7749;49.964;7.890;2023-07-22T08:49:05;22.10;1.00
15296;DHT22;7749;49.964;7.890;2023-07-22T08:51:33;22.40;1.00
15296;DHT22;7749;49.964;7.890;2023-07-22T08:54:02;22.80;99.90
15296;DHT22;7749;49.964;7.890;2023-07-22T08:56:38;23.00;99.90
15296;DHT22;7749;49.964;7.890;2023-07-22T08:59:06;23.20;99.90
15296;DHT22;7749;49.964;7.890;2023-07-22T09:01:34;23.40;97.70
15296;DHT22;7749;49.964;7.890;2023-07-22T09:04:04;23.70;18.20
15296;DHT22;7749;49.964;7.890;2023-07-22T09:06:33;24.10;1.00
15296;DHT22;7749;49.964;7.890;2023-07-22T09:09:01;24.30;1.00
15296;DHT22;7749;49.964;7.890;2023-07-22T09:11:32;24.60;1.00
15296;DHT22;7749;49.964;7.890;2023-07-22T09:14:00;25.00;1.00
15296;DHT22;7749;49.964;7.890;2023-07-22T09:16:30;25.10;1.00
15296;DHT22;7749;49.964;7.890;2023-07-22T09:18:59;25.20;1.00
15296;DHT22;7749;49.964;7.890;2023-07-22T09:21:26;25.30;1.00
15296;DHT22;7749;49.964;7.890;2023-07-22T09:23:55;25.20;1.00
15296;DHT22;7749;49.964;7.890;2023-07-22T09:26:22;25.40;1.00
15296;DHT22;7749;49.964;7.890;2023-07-22T09:28:54;25.60;1.00
15296;DHT22;7749;49.964;7.890;2023-07-22T09:31:23;25.80;1.00
15296;DHT22;7749;49.964;7.890;2023-07-22T09:33:52;25.70;1.00
15296;DHT22;7749;49.964;7.890;2023-07-22T09:36:23;25.40;1.00
15296;DHT22;7749;49.964;7.890;2023-07-22T09:39:00;25.20;99.90
15296;DHT22;7749;49.964;7.890;2023-07-22T09:41:31;24.30;1.00
15296;DHT22;7749;49.964;7.890;2023-07-22T09:44:02;23.80;1.00
15296;DHT22;7749;49.964;7.890;2023-07-22T09:46:33;23.60;1.00
15296;DHT22;7749;49.964;7.890;2023-07-22T09:49:03;23.70;1.00
15296;DHT22;7749;49.964;7.890;2023-07-22T09:51:35;24.10;1.00
15296;DHT22;7749;49.964;7.890;2023-07-22T09:54:26;24.40;1.00
15296;DHT22;7749;49.964;7.890;2023-07-22T09:56:56;24.40;1.00
15296;DHT22;7749;49.964;7.890;2023-07-22T09:59:24;24.40;99.90
15296;DHT22;7749;49.964;7.890;2023-07-22T10:01:55;24.80;92.30
15296;DHT22;7749;49.964;7.890;2023-07-22T10:04:28;24.90;90.60
15296;DHT22;7749;49.964;7.890;2023-07-22T10:06:59;25.10;90.70
15296;DHT22;7749;49.964;7.890;2023-07-22T10:09:28;25.70;88.90
15296;DHT22;7749;49.964;7.890;2023-07-22T10:11:57;25.80;88.30
15296;DHT22;7749;49.964;7.890;2023-07-22T10:14:26;26.00;86.10
15296;DHT22;7749;49.964;7.890;2023-07-22T10:16:57;25.70;87.60
15296;DHT22;7749;49.964;7.890;2023-07-22T10:19:26;25.70;85.60
15296;DHT22;7749;49.964;7.890;2023-07-22T10:21:54;25.10;86.40
15296;DHT22;7749;49.964;7.890;2023-07-22T10:24:21;24.80;87.00
15296;DHT22;7749;49.964;7.890;2023-07-22T10:26:49;24.60;87.30
15296;DHT22;7749;49.964;7.890;2023-07-22T10:29:20;24.30;88.50
15296;DHT22;7749;49.964;7.890;2023-07-22T10:31:47;24.10;89.20
15296;DHT22;7749;49.964;7.890;2023-07-22T10:34:21;24.20;90.00
15296;DHT22;7749;49.964;7.890;2023-07-22T10:36:49;23.90;90.00
15296;DHT22;7749;49.964;7.890;2023-07-22T10:39:27;24.10;89.40
15296;DHT22;7749;49.964;7.890;2023-07-22T10:42:05;24.60;87.30
15296;DHT22;7749;49.964;7.890;2023-07-22T10:44:37;25.00;87.60
15296;DHT22;7749;49.964;7.890;2023-07-22T10:47:05;25.40;85.50
15296;DHT22;7749;49.964;7.890;2023-07-22T10:49:45;25.30;84.00
15296;DHT22;7749;49.964;7.890;2023-07-22T10:52:14;24.60;84.30
15296;DHT22;7749;49.964;7.890;2023-07-22T10:54:42;24.80;84.90
15296;DHT22;7749;49.964;7.890;2023-07-22T10:59:52;24.80;84.70
15296;DHT22;7749;49.964;7.890;2023-07-22T11:02:27;25.00;83.70
15296;DHT22;7749;49.964;7.890;2023-07-22T11:04:58;25.40;82.80
15296;DHT22;7749;49.964;7.890;2023-07-22T11:07:32;24.80;84.40
15296;DHT22;7749;49.964;7.890;2023-07-22T11:10:12;24.50;82.40
15296;DHT22;7749;49.964;7.890;2023-07-22T11:12:39;24.70;83.10
15296;DHT22;7749;49.964;7.890;2023-07-22T11:15:09;25.10;82.60
15296;DHT22;7749;49.964;7.890;2023-07-22T11:17:37;25.50;82.10
15296;DHT22;7749;49.964;7.890;2023-07-22T11:20:05;26.00;81.80
15296;DHT22;7749;49.964;7.890;2023-07-22T11:22:33;26.10;81.10
15296;DHT22;7749;49.964;7.890;2023-07-22T11:25:01;26.10;79.90
15296;DHT22;7749;49.964;7.890;2023-07-22T11:27:28;26.30;78.00
15296;DHT22;7749;49.964;7.890;2023-07-22T11:29:58;26.60;78.10
15296;DHT22;7749;49.964;7.890;2023-07-22T11:32:26;28.10;70.90
15296;DHT22;7749;49.964;7.890;2023-07-22T11:34:53;27.60;68.10
15296;DHT22;7749;49.964;7.890;2023-07-22T11:37:21;28.50;67.40
15296;DHT22;7749;49.964;7.890;2023-07-22T11:39:48;28.60;64.70
15296;DHT22;7749;49.964;7.890;2023-07-22T11:42:16;28.50;64.60
15296;DHT22;7749;49.964;7.890;2023-07-22T11:44:44;28.50;64.60
15296;DHT22;7749;49.964;7.890;2023-07-22T11:47:11;29.40;61.90
15296;DHT22;7749;49.964;7.890;2023-07-22T11:49:41;29.80;60.40
15296;DHT22;7749;49.964;7.890;2023-07-22T11:52:11;30.40;58.10
15296;DHT22;7749;49.964;7.890;2023-07-22T11:54:42;29.10;56.40
15296;DHT22;7749;49.964;7.890;2023-07-22T11:57:18;28.80;57.00
15296;DHT22;7749;49.964;7.890;2023-07-22T11:59:55;29.40;55.60
15296;DHT22;7749;49.964;7.890;2023-07-22T12:02:27;30.70;54.10
15296;DHT22;7749;49.964;7.890;2023-07-22T12:05:03;31.10;52.50
15296;DHT22;7749;49.964;7.890;2023-07-22T12:07:34;31.30;49.80
15296;DHT22;7749;49.964;7.890;2023-07-22T12:10:06;31.40;49.00
15296;DHT22;7749;49.964;7.890;2023-07-22T12:12:35;32.00;45.80
15296;DHT22;7749;49.964;7.890;2023-07-22T12:15:12;31.00;46.00
15296;DHT22;7749;49.964;7.890;2023-07-22T12:17:52;29.00;48.50
15296;DHT22;7749;49.964;7.890;2023-07-22T12:20:24;27.80;50.50
15296;DHT22;7749;49.964;7.890;2023-07-22T12:22:54;28.90;49.70
15296;DHT22;7749;49.964;7.890;2023-07-22T12:25:21;28.60;49.00
15296;DHT22;7749;49.964;7.890;2023-07-22T12:27:49;28.30;50.00
15296;DHT22;7749;49.964;7.890;2023-07-22T12:30:17;28.20;50.70
15296;DHT22;7749;49.964;7.890;2023-07-22T12:32:47;29.90;48.00
15296;DHT22;7749;49.964;7.890;2023-07-22T12:35:15;31.80;44.60
15296;DHT22;7749;49.964;7.890;2023-07-22T12:37:43;31.10;43.70
15296;DHT22;7749;49.964;7.890;2023-07-22T12:40:11;31.40;42.50
15296;DHT22;7749;49.964;7.890;2023-07-22T12:42:40;31.40;43.00
15296;DHT22;7749;49.964;7.890;2023-07-22T12:45:08;30.40;45.00
15296;DHT22;7749;49.964;7.890;2023-07-22T12:47:36;31.30;43.30
15296;DHT22;7749;49.964;7.890;2023-07-22T12:50:08;31.20;43.90
15296;DHT22;7749;49.964;7.890;2023-07-22T12:52:36;31.90;42.30
15296;DHT22;7749;49.964;7.890;2023-07-22T12:55:04;31.40;42.00
15296;DHT22;7749;49.964;7.890;2023-07-22T12:57:31;30.50;42.60
15296;DHT22;7749;49.964;7.890;2023-07-22T13:00:02;30.80;43.80
15296;DHT22;7749;49.964;7.890;2023-07-22T13:02:33;31.10;42.00
15296;DHT22;7749;49.964;7.890;2023-07-22T13:05:01;30.60;42.30
15296;DHT22;7749;49.964;7.890;2023-07-22T13:07:29;29.90;42.60
15296;DHT22;7749;49.964;7.890;2023-07-22T13:09:56;30.60;42.50
15296;DHT22;7749;49.964;7.890;2023-07-22T13:12:25;30.50;41.40
15296;DHT22;7749;49.964;7.890;2023-07-22T13:14:53;30.60;41.90
15296;DHT22;7749;49.964;7.890;2023-07-22T13:17:20;30.90;39.70
15296;DHT22;7749;49.964;7.890;2023-07-22T13:19:48;29.70;41.20
15296;DHT22;7749;49.964;7.890;2023-07-22T13:22:15;28.80;42.30
15296;DHT22;7749;49.964;7.890;2023-07-22T13:24:42;27.80;44.50
15296;DHT22;7749;49.964;7.890;2023-07-22T13:27:10;27.70;45.10
15296;DHT22;7749;49.964;7.890;2023-07-22T13:29:39;28.20;45.40
15296;DHT22;7749;49.964;7.890;2023-07-22T13:32:07;29.70;42.80
15296;DHT22;7749;49.964;7.890;2023-07-22T13:34:35;31.70;41.50
15296;DHT22;7749;49.964;7.890;2023-07-22T13:37:02;34.20;36.90
15296;DHT22;7749;49.964;7.890;2023-07-22T13:39:30;34.30;35.70
15296;DHT22;7749;49.964;7.890;2023-07-22T13:41:57;33.00;34.30
15296;DHT22;7749;49.964;7.890;2023-07-22T13:44:25;32.30;34.60
15296;DHT22;7749;49.964;7.890;2023-07-22T13:46:52;32.50;35.20
15296;DHT22;7749;49.964;7.890;2023-07-22T13:49:20;33.10;34.20
15296;DHT22;7749;49.964;7.890;2023-07-22T13:51:47;32.70;34.10
15296;DHT22;7749;49.964;7.890;2023-07-22T13:54:15;31.30;35.20
15296;DHT22;7749;49.964;7.890;2023-07-22T13:56:43;30.70;37.00
15296;DHT22;7749;49.964;7.890;2023-07-22T13:59:13;31.80;35.40
15296;DHT22;7749;49.964;7.890;2023-07-22T14:01:41;33.10;34.80
15296;DHT22;7749;49.964;7.890;2023-07-22T14:04:08;32.80;32.60
15296;DHT22;7749;49.964;7.890;2023-07-22T14:06:36;32.40;33.10
15296;DHT22;7749;49.964;7.890;2023-07-22T14:09:03;33.40;33.00
15296;DHT22;7749;49.964;7.890;2023-07-22T14:11:31;33.90;30.00
15296;DHT22;7749;49.964;7.890;2023-07-22T14:13:58;32.70;31.40
15296;DHT22;7749;49.964;7.890;2023-07-22T14:16:26;32.60;31.90
15296;DHT22;7749;49.964;7.890;2023-07-22T14:18:53;32.80;32.20
15296;DHT22;7749;49.964;7.890;2023-07-22T14:21:22;33.20;32.60
15296;DHT22;7749;49.964;7.890;2023-07-22T14:23:49;33.40;30.80
15296;DHT22;7749;49.964;7.890;2023-07-22T14:26:17;34.00;30.00
15296;DHT22;7749;49.964;7.890;2023-07-22T14:28:44;33.80;30.00
15296;DHT22;7749;49.964;7.890;2023-07-22T14:33:56;32.50;31.90
15296;DHT22;7749;49.964;7.890;2023-07-22T14:36:23;33.10;30.70
15296;DHT22;7749;49.964;7.890;2023-07-22T14:38:51;33.20;30.50
15296;DHT22;7749;49.964;7.890;2023-07-22T14:41:19;33.80;29.70
15296;DHT22;7749;49.964;7.890;2023-07-22T14:43:46;34.70;29.50
15296;DHT22;7749;49.964;7.890;2023-07-22T14:46:13;35.60;28.30
15296;DHT22;7749;49.964;7.890;2023-07-22T14:48:41;34.50;28.00
15296;DHT22;7749;49.964;7.890;2023-07-22T14:51:09;32.70;30.50
15296;DHT22;7749;49.964;7.890;2023-07-22T14:53:37;33.50;30.10
15296;DHT22;7749;49.964;7.890;2023-07-22T14:56:04;33.60;29.00
15296;DHT22;7749;49.964;7.890;2023-07-22T14:58:34;33.00;29.40
15296;DHT22;7749;49.964;7.890;2023-07-22T15:01:01;34.10;29.00
15296;DHT22;7749;49.964;7.890;2023-07-22T15:03:30;34.20;28.80
15296;DHT22;7749;49.964;7.890;2023-07-22T15:05:57;33.00;29.90
15296;DHT22;7749;49.964;7.890;2023-07-22T15:08:25;33.50;30.00
15296;DHT22;7749;49.964;7.890;2023-07-22T15:10:52;35.00;28.60
15296;DHT22;7749;49.964;7.890;2023-07-22T15:13:20;35.50;28.00
15296;DHT22;7749;49.964;7.890;2023-07-22T15:15:47;34.90;27.50
15296;DHT22;7749;49.964;7.890;2023-07-22T15:18:15;35.30;26.90
15296;DHT22;7749;49.964;7.890;2023-07-22T15:20:42;32.50;28.90
15296;DHT22;7749;49.964;7.890;2023-07-22T15:23:10;33.00;29.40
15296;DHT22;7749;49.964;7.890;2023-07-22T15:25:37;33.50;28.40
15296;DHT22;7749;49.964;7.890;2023-07-22T15:28:05;33.40;29.10
15296;DHT22;7749;49.964;7.890;2023-07-22T15:30:32;33.00;29.20
15296;DHT22;7749;49.964;7.890;2023-07-22T15:33:00;33.80;28.50
15296;DHT22;7749;49.964;7.890;2023-07-22T15:35:27;34.60;28.40
15296;DHT22;7749;49.964;7.890;2023-07-22T15:37:55;34.90;26.70
15296;DHT22;7749;49.964;7.890;2023-07-22T15:40:22;34.60;26.70
15296;DHT22;7749;49.964;7.890;2023-07-22T15:42:51;32.00;28.70
15296;DHT22;7749;49.964;7.890;2023-07-22T15:45:19;31.20;29.70
15296;DHT22;7749;49.964;7.890;2023-07-22T15:47:46;31.50;29.60
15296;DHT22;7749;49.964;7.890;2023-07-22T15:50:14;33.00;29.20
15296;DHT22;7749;49.964;7.890;2023-07-22T15:52:41;34.20;28.20
15296;DHT22;7749;49.964;7.890;2023-07-22T15:55:09;34.00;27.80
15296;DHT22;7749;49.964;7.890;2023-07-22T15:57:36;34.90;27.40
15296;DHT22;7749;49.964;7.890;2023-07-22T16:00:04;35.10;26.90
15296;DHT22;7749;49.964;7.890;2023-07-22T16:02:36;34.90;26.30
15296;DHT22;7749;49.964;7.890;2023-07-22T16:05:04;33.10;27.60